Time;durP1;ratioP1;P1;durP2;ratioP2;P2;SDS_P1;SDS_P2;PMS_P1;PMS_P2;Temp;Humidity;BMP_temperature;BMP_pressure;BME280_temperature;BME280_humidity;BME280_pressure;Samples;Min_cycle;Max_cycle;Signal;HPM_P1;HPM_P2
2021/06/26 00:00:51;;;;;;;36.75;7.78;;;;;;;24.65;90.39;97238.91;5084706;28;20020;-80
2021/06/26 00:03:22;;;;;;;37.20;7.72;;;;;;;24.84;90.71;97286.75;5088374;28;20506;-80
2021/06/26 00:05:47;;;;;;;28.27;6.32;;;;;;;24.81;91.67;97287.97;5072961;28;20387;-80
2021/06/26 00:08:13;;;;;;;33.08;7.22;;;;;;;24.79;91.71;97295.50;5076319;28;20061;-80
2021/06/26 00:10:40;;;;;;;42.65;7.38;;;;;;;24.68;92.74;97293.22;5079260;28;20031;-80
2021/06/26 00:13:06;;;;;;;34.00;7.43;;;;;;;24.57;92.94;97291.84;5096467;28;20410;-80
2021/06/26 00:15:31;;;;;;;41.17;6.65;;;;;;;24.53;93.78;97290.50;5096340;28;20027;-80
2021/06/26 00:17:57;;;;;;;28.85;6.72;;;;;;;24.61;93.34;97315.00;5095764;28;20062;-79
2021/06/26 00:20:22;;;;;;;32.55;7.18;;;;;;;24.56;93.87;97316.63;5065628;28;20035;-81
2021/06/26 00:22:48;;;;;;;32.70;7.03;;;;;;;24.50;93.54;97309.16;5078227;28;20036;-80
2021/06/26 00:25:14;;;;;;;26.98;7.43;;;;;;;24.60;93.86;97323.44;5066154;28;20119;-81
2021/06/26 00:27:39;;;;;;;34.75;7.93;;;;;;;24.44;94.70;97301.72;5075182;28;20499;-81
2021/06/26 00:30:05;;;;;;;39.05;7.85;;;;;;;24.42;95.00;97314.75;5066830;28;20036;-79
2021/06/26 00:32:31;;;;;;;44.42;8.15;;;;;;;24.39;95.43;97310.50;5058182;28;20031;-79
2021/06/26 00:34:56;;;;;;;32.00;7.63;;;;;;;24.37;95.17;97308.97;5058410;28;20106;-81
2021/06/26 00:37:22;;;;;;;33.65;7.65;;;;;;;24.49;95.05;97315.66;5058562;28;20058;-80
2021/06/26 00:39:47;;;;;;;33.78;7.63;;;;;;;24.51;95.52;97314.47;5074742;28;20073;-80
2021/06/26 00:42:13;;;;;;;26.25;7.65;;;;;;;24.54;94.56;97318.72;5074640;28;20027;-80
2021/06/26 00:44:39;;;;;;;34.13;7.38;;;;;;;24.44;94.27;97302.56;5066486;28;20126;-80
2021/06/26 00:47:11;;;;;;;29.65;7.13;;;;;;;24.46;95.07;97295.00;5085433;28;20078;-80
2021/06/26 00:49:37;;;;;;;;;;;;;;;24.55;94.51;97309.47;5064256;28;20020;-80
2021/06/26 00:52:03;;;;;;;39.03;7.88;;;;;;;24.51;93.21;97303.53;5065787;28;19912;-80
2021/06/26 00:54:29;;;;;;;35.53;7.72;;;;;;;24.43;93.51;97300.00;5063481;28;20082;-80
2021/06/26 00:56:55;;;;;;;38.42;7.65;;;;;;;24.39;93.94;97293.25;5068720;28;20060;-80
2021/06/26 00:59:22;;;;;;;33.83;8.15;;;;;;;24.32;93.50;97284.06;5057585;28;20055;-80
2021/06/26 01:01:47;;;;;;;30.17;7.60;;;;;;;24.49;91.93;97302.84;5074675;28;20495;-80
2021/06/26 01:04:13;;;;;;;29.63;6.50;;;;;;;24.32;92.75;97275.88;5074057;28;20106;-80
2021/06/26 01:06:38;;;;;;;34.03;7.20;;;;;;;24.33;93.56;97281.16;5073875;28;20024;-79
2021/06/26 01:09:04;;;;;;;31.65;6.90;;;;;;;24.40;94.13;97300.38;5073913;28;20044;-80
2021/06/26 01:11:30;;;;;;;44.42;8.80;;;;;;;24.25;93.43;97270.31;5057466;28;20478;-80
2021/06/26 01:13:57;;;;;;;34.75;7.20;;;;;;;24.31;93.21;97276.91;5074155;28;20030;-80
2021/06/26 01:16:24;;;;;;;31.33;7.60;;;;;;;24.41;92.77;97291.16;5074096;28;20051;-80
2021/06/26 01:18:50;;;;;;;34.13;7.32;;;;;;;24.40;93.30;97289.44;5057272;28;20024;-80
2021/06/26 01:21:16;;;;;;;25.77;7.10;;;;;;;24.42;94.28;97304.66;5111665;28;20027;-80
2021/06/26 01:23:46;;;;;;;29.15;6.63;;;;;;;24.27;96.47;97295.59;5077420;28;20062;-83
2021/06/26 01:26:12;;;;;;;25.92;6.90;;;;;;;24.34;97.30;97307.47;5058508;28;20035;-79
2021/06/26 01:28:39;;;;;;;33.00;7.95;;;;;;;24.30;98.63;97318.97;5074340;28;20119;-79
2021/06/26 01:31:04;;;;;;;27.10;7.40;;;;;;;24.14;99.13;97295.38;5090604;28;20406;-78
2021/06/26 01:33:30;;;;;;;34.70;8.15;;;;;;;24.16;100.00;97294.16;5087175;28;20028;-79
2021/06/26 01:35:56;;;;;;;39.33;7.60;;;;;;;24.04;100.00;97284.66;5094224;28;20471;-79
2021/06/26 01:38:21;;;;;;;43.88;8.38;;;;;;;24.03;100.00;97302.09;5093736;28;20916;-79
2021/06/26 01:40:49;;;;;;;31.58;7.70;;;;;;;23.89;100.00;97291.97;5097209;28;20081;-79
2021/06/26 01:43:15;;;;;;;28.00;8.27;;;;;;;23.85;100.00;97287.91;5065065;28;20035;-79
2021/06/26 01:45:41;;;;;;;30.13;7.57;;;;;;;23.70;100.00;97287.00;5073748;28;20027;-81
2021/06/26 01:48:07;;;;;;;30.63;7.63;;;;;;;23.66;100.00;97269.28;5091058;28;20451;-80
2021/06/26 01:50:33;;;;;;;36.28;7.90;;;;;;;23.43;100.00;97257.53;5072935;28;20106;-81
2021/06/26 01:53:00;;;;;;;34.92;7.78;;;;;;;23.35;100.00;97255.66;5073545;28;20103;-80
2021/06/26 01:55:26;;;;;;;32.03;7.97;;;;;;;23.41;100.00;97268.63;5074172;28;20225;-80
2021/06/26 01:57:52;;;;;;;32.78;7.80;;;;;;;23.45;100.00;97272.69;5073666;28;20475;-80
2021/06/26 02:00:20;;;;;;;25.48;7.30;;;;;;;23.41;100.00;97262.34;5067453;28;20031;-81
2021/06/26 02:02:46;;;;;;;28.85;8.32;;;;;;;23.26;100.00;97231.38;5070443;28;20031;-81
2021/06/26 02:05:12;;;;;;;39.50;9.02;;;;;;;23.16;100.00;97242.53;5056199;28;20111;-80
2021/06/26 02:07:38;;;;;;;36.47;7.93;;;;;;;23.13;100.00;97249.16;5071671;28;20020;-80
2021/06/26 02:10:05;;;;;;;44.50;8.52;;;;;;;23.22;100.00;97250.81;5073517;28;20062;-80
2021/06/26 02:12:31;;;;;;;38.08;8.13;;;;;;;23.03;100.00;97217.69;5085975;28;20019;-81
2021/06/26 02:14:56;;;;;;;30.98;8.65;;;;;;;23.15;100.00;97244.38;5078199;28;20027;-80
2021/06/26 02:17:22;;;;;;;26.98;7.75;;;;;;;23.18;100.00;97238.56;5090230;28;20047;-80
2021/06/26 02:19:49;;;;;;;42.13;8.82;;;;;;;22.97;100.00;97219.28;5056611;28;20012;-80
2021/06/26 02:22:15;;;;;;;27.55;8.35;;;;;;;22.95;100.00;97228.66;5073464;28;20028;-80
2021/06/26 02:24:41;;;;;;;34.40;9.25;;;;;;;23.02;100.00;97249.59;5056903;28;20012;-80
2021/06/26 02:27:06;;;;;;;36.85;9.25;;;;;;;22.89;100.00;97222.03;5081607;28;20513;-81
2021/06/26 02:29:33;;;;;;;35.80;8.77;;;;;;;22.98;100.00;97234.59;5076959;28;20136;-80
2021/06/26 02:31:58;;;;;;;38.50;7.90;;;;;;;22.75;100.00;97208.31;5085473;28;20020;-80
2021/06/26 02:34:24;;;;;;;40.42;9.10;;;;;;;22.66;100.00;97205.63;5064383;28;20027;-80
2021/06/26 02:36:50;;;;;;;37.25;9.77;;;;;;;22.68;100.00;97213.63;5062431;28;20031;-79
2021/06/26 02:39:15;;;;;;;31.08;8.93;;;;;;;22.56;100.00;97191.34;5102519;28;20016;-79
2021/06/26 02:41:41;;;;;;;28.90;8.80;;;;;;;22.68;100.00;97205.44;5066710;28;20027;-78
2021/06/26 02:44:06;;;;;;;39.13;9.15;;;;;;;22.67;100.00;97207.31;5086044;28;20093;-78
2021/06/26 02:46:32;;;;;;;41.08;9.45;;;;;;;22.62;100.00;97206.13;5072228;28;20478;-79
2021/06/26 02:48:58;;;;;;;30.83;9.48;;;;;;;22.51;100.00;97184.72;5097467;28;20390;-79
2021/06/26 02:51:23;;;;;;;31.13;8.85;;;;;;;22.56;100.00;97193.22;5095127;28;20066;-79
2021/06/26 02:53:49;;;;;;;31.98;9.43;;;;;;;22.59;100.00;97203.75;5085591;28;20387;-79
2021/06/26 02:56:15;;;;;;;41.85;10.32;;;;;;;22.58;100.00;97202.06;5076906;28;20487;-79
2021/06/26 02:58:40;;;;;;;30.17;8.57;;;;;;;22.56;100.00;97199.50;5081453;28;20098;-79
2021/06/26 03:01:06;;;;;;;41.70;10.38;;;;;;;22.60;100.00;97200.88;5072322;28;20026;-79
2021/06/26 03:03:32;;;;;;;49.83;10.48;;;;;;;22.46;100.00;97178.94;5094195;28;20395;-79
2021/06/26 03:05:58;;;;;;;36.53;9.93;;;;;;;22.50;100.00;97193.91;5092229;28;20030;-80
2021/06/26 03:08:23;;;;;;;48.22;11.55;;;;;;;22.56;100.00;97195.94;5096918;28;20551;-79
2021/06/26 03:10:49;;;;;;;37.10;9.70;;;;;;;22.45;100.00;97180.00;5083422;28;20510;-81
2021/06/26 03:13:15;;;;;;;31.02;9.57;;;;;;;22.39;100.00;97177.97;5068735;28;20020;-80
2021/06/26 03:15:42;;;;;;;33.35;9.23;;;;;;;22.47;100.00;97205.19;5097260;28;20136;-80
2021/06/26 03:18:08;;;;;;;46.67;9.27;;;;;;;22.59;100.00;97228.28;5080018;28;20460;-80
2021/06/26 03:20:33;;;;;;;40.35;11.20;;;;;;;22.47;100.00;97206.03;5081147;28;20039;-84
2021/06/26 03:22:59;;;;;;;38.08;10.10;;;;;;;22.24;100.00;97177.03;5083450;28;20035;-88
2021/06/26 03:25:24;;;;;;;38.13;10.38;;;;;;;22.57;100.00;97231.22;5078807;28;20060;-85
2021/06/26 03:27:50;;;;;;;32.58;10.85;;;;;;;22.45;100.00;97218.16;5059613;28;20020;-81
2021/06/26 03:30:16;;;;;;;39.90;10.98;;;;;;;22.49;100.00;97225.78;5074944;28;20115;-83
2021/06/26 03:32:42;;;;;;;40.13;10.95;;;;;;;22.42;100.00;97213.91;5059699;28;20024;-90
2021/06/26 03:35:08;;;;;;;29.92;9.80;;;;;;;22.30;100.00;97192.66;5068337;28;20024;-80
2021/06/26 03:37:33;;;;;;;36.50;11.30;;;;;;;22.46;100.00;97226.13;5074811;28;20024;-80
2021/06/26 03:39:59;;;;;;;38.15;10.35;;;;;;;22.43;100.00;97214.72;5083125;28;20024;-81
2021/06/26 03:42:25;;;;;;;41.72;10.63;;;;;;;22.51;100.00;97233.81;5091852;28;20053;-80
2021/06/26 03:44:50;;;;;;;32.90;9.85;;;;;;;22.38;100.00;97214.41;5096060;28;20027;-81
2021/06/26 03:47:16;;;;;;;35.40;9.27;;;;;;;22.52;100.00;97225.44;5086639;28;20407;-81
2021/06/26 03:49:41;;;;;;;32.35;10.48;;;;;;;22.46;100.00;97198.03;5086049;28;20016;-81
2021/06/26 03:52:07;;;;;;;45.00;10.32;;;;;;;22.70;100.00;97233.41;5076903;28;20106;-81
2021/06/26 03:54:33;;;;;;;36.03;10.80;;;;;;;22.39;100.00;97169.78;5093737;28;20038;-79
2021/06/26 03:57:00;;;;;;;45.75;11.73;;;;;;;22.93;100.00;97239.75;5086605;28;20036;-77
2021/06/26 03:59:25;;;;;;;41.70;11.25;;;;;;;22.95;100.00;97245.03;5081595;28;20020;-80
2021/06/26 04:01:51;;;;;;;27.90;10.13;;;;;;;23.03;100.00;97229.47;5056297;28;20038;-80
2021/06/26 04:04:17;;;;;;;45.70;10.95;;;;;;;22.92;100.00;97227.13;5064775;28;20040;-81
2021/06/26 04:06:42;;;;;;;39.85;11.30;;;;;;;23.11;100.00;97220.34;5055932;28;20423;-82
2021/06/26 04:09:08;;;;;;;37.92;9.68;;;;;;;23.14;100.00;97209.94;5084396;28;20101;-81
2021/06/26 04:11:33;;;;;;;42.10;10.90;;;;;;;23.27;100.00;97219.41;5082501;28;20538;-81
2021/06/26 04:13:59;;;;;;;37.15;10.55;;;;;;;23.53;100.00;97236.31;5067643;28;20025;-81
2021/06/26 04:16:25;;;;;;;37.08;10.05;;;;;;;23.73;100.00;97240.22;5061264;28;20119;-81
2021/06/26 04:18:50;;;;;;;34.03;10.55;;;;;;;23.77;100.00;97219.69;5078669;28;20545;-80
2021/06/26 04:21:16;;;;;;;39.83;10.57;;;;;;;23.77;100.00;97218.84;5054825;28;20024;-80
2021/06/26 04:23:42;;;;;;;35.33;10.45;;;;;;;23.90;100.00;97239.03;5073034;28;20514;-81
2021/06/26 04:26:07;;;;;;;39.85;11.25;;;;;;;23.87;100.00;97231.19;5072842;28;20032;-81
2021/06/26 04:28:33;;;;;;;41.08;11.13;;;;;;;23.46;100.00;97213.47;5061141;28;20032;-81
2021/06/26 04:30:59;;;;;;;43.67;11.65;;;;;;;23.60;100.00;97229.03;5058012;28;20031;-79
2021/06/26 04:33:27;;;;;;;33.15;10.18;;;;;;;23.61;100.00;97244.41;5082737;28;20078;-80
2021/06/26 04:35:53;;;;;;;34.13;11.07;;;;;;;23.82;100.00;97244.56;5072727;28;20031;-80
2021/06/26 04:38:22;;;;;;;36.33;10.75;;;;;;;23.94;100.00;97244.97;5081205;28;20029;-80
2021/06/26 04:40:52;;;;;;;29.45;10.05;;;;;;;24.11;100.00;97244.66;5055035;28;20036;-80
2021/06/26 04:43:20;;;;;;;47.53;10.60;;;;;;;23.91;100.00;97216.13;5055072;28;20514;-80
2021/06/26 04:45:47;;;;;;;47.90;11.75;;;;;;;24.07;100.00;97235.09;5071218;28;20035;-80
2021/06/26 04:48:16;;;;;;;39.53;10.50;;;;;;;24.15;100.00;97248.69;5054598;28;20028;-80
2021/06/26 04:50:41;;;;;;;39.13;10.63;;;;;;;24.08;100.00;97244.16;5064778;28;20033;-80
2021/06/26 04:53:07;;;;;;;46.42;10.43;;;;;;;25.05;98.55;97257.53;5079421;28;20426;-80
2021/06/26 04:55:33;;;;;;;35.92;10.32;;;;;;;25.59;92.49;97251.63;5054751;28;20028;-79
2021/06/26 04:57:58;;;;;;;37.08;10.15;;;;;;;26.73;86.35;97275.97;5062956;28;20108;-80
2021/06/26 05:00:24;;;;;;;44.08;10.20;;;;;;;27.82;78.40;97280.41;5054656;28;20038;-81
2021/06/26 05:02:50;;;;;;;38.60;10.48;;;;;;;29.38;70.94;97280.41;5056401;28;20067;-81
2021/06/26 05:05:15;;;;;;;31.02;8.88;;;;;;;30.48;64.39;97261.41;5074087;28;20047;-81
2021/06/26 05:07:41;;;;;;;30.45;8.70;;;;;;;31.48;59.98;97301.53;5074468;28;20032;-81
2021/06/26 05:10:07;;;;;;;43.10;9.90;;;;;;;32.54;56.22;97295.28;5078062;28;20052;-81
2021/06/26 05:12:32;;;;;;;33.80;9.25;;;;;;;33.11;53.92;97296.38;5054305;28;20032;-81
2021/06/26 05:14:58;;;;;;;26.27;8.57;;;;;;;34.15;50.04;97315.50;5046337;28;20036;-81
2021/06/26 05:17:23;;;;;;;39.03;9.85;;;;;;;34.61;47.77;97314.38;5071343;28;20400;-81
2021/06/26 05:19:49;;;;;;;26.40;7.93;;;;;;;35.23;46.31;97306.75;5073041;28;20078;-81
2021/06/26 05:22:14;;;;;;;34.30;8.15;;;;;;;35.88;44.47;97323.47;5074379;28;20028;-81
2021/06/26 05:24:41;;;;;;;30.80;8.60;;;;;;;36.68;42.77;97311.47;5082785;28;20031;-81
2021/06/26 05:27:07;;;;;;;37.20;8.55;;;;;;;36.52;42.13;97303.25;5069789;28;20031;-82
2021/06/26 05:29:33;;;;;;;29.35;8.05;;;;;;;37.23;40.75;97310.22;5078640;28;20419;-82
2021/06/26 05:31:59;;;;;;;32.85;7.75;;;;;;;37.04;40.59;97317.38;5090611;28;20031;-82
2021/06/26 05:34:24;;;;;;;34.70;10.25;;;;;;;37.69;39.11;97326.09;5073792;28;20031;-82
2021/06/26 05:36:50;;;;;;;44.97;8.38;;;;;;;37.28;39.80;97329.78;5071554;28;20027;-81
2021/06/26 05:39:15;;;;;;;37.83;9.18;;;;;;;37.31;39.80;97337.63;5084448;28;20016;-82
2021/06/26 05:41:41;;;;;;;25.13;8.38;;;;;;;38.24;38.94;97321.84;5090655;28;20028;-81
2021/06/26 05:44:06;;;;;;;38.63;8.70;;;;;;;39.28;36.26;97333.41;5091007;28;20117;-81
2021/06/26 05:46:32;;;;;;;33.75;8.70;;;;;;;37.55;39.01;97324.94;5083561;28;20029;-82
2021/06/26 05:48:59;;;;;;;34.08;8.10;;;;;;;36.79;40.10;97310.44;5053308;28;20036;-82
2021/06/26 05:51:24;;;;;;;37.75;8.80;;;;;;;37.57;39.01;97327.44;5078520;28;20059;-81
2021/06/26 05:53:50;;;;;;;37.40;8.10;;;;;;;38.66;37.28;97322.47;5053152;28;20028;-81
2021/06/26 05:56:16;;;;;;;31.52;8.65;;;;;;;39.57;35.78;97336.38;5070331;28;20613;-81
2021/06/26 05:58:42;;;;;;;36.65;8.10;;;;;;;39.76;35.42;97323.44;5088757;28;20047;-82
2021/06/26 06:01:11;;;;;;;32.50;9.18;;;;;;;39.36;36.31;97335.59;5086608;28;20040;-82
2021/06/26 06:03:39;;;;;;;33.13;8.93;;;;;;;40.70;34.21;97341.19;5070358;28;20028;-82
2021/06/26 06:06:06;;;;;;;37.55;8.57;;;;;;;41.07;33.41;97328.22;5073636;28;20023;-83
2021/06/26 06:08:32;;;;;;;39.33;8.88;;;;;;;40.90;33.58;97330.59;5090225;28;20093;-82
2021/06/26 06:10:58;;;;;;;43.40;8.82;;;;;;;40.18;35.07;97319.34;5090126;28;20028;-82
2021/06/26 06:13:23;;;;;;;43.38;9.23;;;;;;;41.21;33.06;97333.16;5084447;28;20020;-83
2021/06/26 06:15:50;;;;;;;43.83;9.48;;;;;;;40.87;33.93;97345.22;5074399;28;20020;-81
2021/06/26 06:18:18;;;;;;;35.78;9.90;;;;;;;40.95;34.14;97358.66;5087152;28;20020;-82
2021/06/26 06:20:43;;;;;;;31.63;13.10;;;;;;;41.03;34.29;97360.00;5094316;28;20051;-81
2021/06/26 06:23:09;;;;;;;30.30;9.27;;;;;;;40.87;34.42;97366.84;5095429;28;20514;-83
2021/06/26 06:25:35;;;;;;;38.63;9.45;;;;;;;42.14;32.25;97359.66;5077387;28;20047;-81
2021/06/26 06:28:02;;;;;;;35.70;9.32;;;;;;;42.65;31.16;97378.66;5066059;28;20428;-82
2021/06/26 06:30:30;;;;;;;36.58;8.48;;;;;;;41.05;33.24;97392.25;5063193;28;20027;-82
2021/06/26 06:33:00;;;;;;;28.15;7.55;;;;;;;42.05;32.54;97383.97;5067063;28;20024;-82
2021/06/26 06:35:26;;;;;;;30.98;8.05;;;;;;;41.59;33.24;97396.84;5056982;28;20032;-83
2021/06/26 06:37:52;;;;;;;28.27;8.27;;;;;;;42.52;32.00;97382.19;5056961;28;20376;-83
2021/06/26 06:40:18;;;;;;;34.10;7.75;;;;;;;41.72;33.25;97384.88;5074534;28;20031;-80
2021/06/26 06:42:44;;;;;;;37.85;7.20;;;;;;;42.76;31.58;97394.25;5073604;28;20466;-83
2021/06/26 06:45:10;;;;;;;35.13;8.88;;;;;;;41.94;31.50;97384.34;5068120;28;20020;-83
2021/06/26 06:47:37;;;;;;;28.85;7.32;;;;;;;42.41;31.31;97394.75;5070910;28;20051;-83
2021/06/26 06:50:03;;;;;;;34.13;8.77;;;;;;;40.97;33.03;97383.63;5075337;28;20434;-81
2021/06/26 06:52:29;;;;;;;29.13;7.47;;;;;;;39.80;35.05;97397.44;5093663;28;20028;-83
2021/06/26 06:54:54;;;;;;;35.28;8.70;;;;;;;39.18;35.75;97394.97;5093244;28;20123;-82
2021/06/26 06:57:23;;;;;;;41.13;7.53;;;;;;;38.95;35.65;97385.16;5076921;28;20138;-82
2021/06/26 06:59:49;;;;;;;46.55;17.15;;;;;;;40.74;34.05;97392.75;5093730;28;20024;-83
2021/06/26 07:02:15;;;;;;;25.48;7.47;;;;;;;41.65;32.94;97388.03;5081484;28;20447;-83
2021/06/26 07:04:40;;;;;;;25.60;6.53;;;;;;;41.35;30.91;97395.97;5072261;28;20062;-82
2021/06/26 07:07:06;;;;;;;28.00;7.00;;;;;;;41.67;30.82;97384.94;5083549;28;20128;-83
2021/06/26 07:09:32;;;;;;;34.50;8.20;;;;;;;40.78;31.90;97374.22;5070342;28;20109;-83
2021/06/26 07:11:58;;;;;;;26.40;6.72;;;;;;;40.53;33.11;97384.50;5076099;28;20474;-82
2021/06/26 07:14:24;;;;;;;30.20;10.07;;;;;;;41.25;31.82;97384.78;5093029;28;20024;-79
2021/06/26 07:16:50;;;;;;;26.52;6.72;;;;;;;42.40;29.52;97390.25;5092035;28;20046;-81
2021/06/26 07:19:15;;;;;;;36.80;7.53;;;;;;;42.64;29.30;97368.56;5093876;28;20467;-82
2021/06/26 07:21:41;;;;;;;33.30;7.45;;;;;;;42.05;30.37;97366.25;5092178;28;20028;-82
2021/06/26 07:24:07;;;;;;;35.28;8.05;;;;;;;40.65;32.96;97391.69;5092691;28;20407;-82
2021/06/26 07:26:33;;;;;;;39.88;8.98;;;;;;;41.15;33.58;97384.88;5069801;28;20036;-82
2021/06/26 07:28:59;;;;;;;32.10;8.38;;;;;;;41.49;32.99;97380.09;5055824;28;20028;-82
2021/06/26 07:31:25;;;;;;;29.63;6.93;;;;;;;42.69;30.50;97371.28;5073214;28;20031;-81
2021/06/26 07:33:50;;;;;;;32.78;7.25;;;;;;;41.94;32.51;97367.50;5056760;28;20020;-80
2021/06/26 07:36:16;;;;;;;37.97;7.15;;;;;;;41.93;32.51;97363.03;5056121;28;20162;-82
2021/06/26 07:38:41;;;;;;;37.50;7.07;;;;;;;42.48;31.69;97375.50;5081778;28;20037;-82
2021/06/26 07:41:07;;;;;;;29.02;7.32;;;;;;;42.23;31.44;97373.06;5095571;28;20444;-82
2021/06/26 07:43:35;;;;;;;28.63;7.13;;;;;;;40.20;34.29;97354.38;5064363;28;20067;-82
2021/06/26 07:46:01;;;;;;;39.13;7.63;;;;;;;40.36;34.27;97369.16;5056613;28;20086;-82
2021/06/26 07:48:27;;;;;;;35.45;6.35;;;;;;;41.45;33.16;97373.38;5085619;28;20052;-83
2021/06/26 07:50:53;;;;;;;40.17;7.38;;;;;;;40.59;34.19;97374.06;5068311;28;20021;-82
2021/06/26 07:53:19;;;;;;;32.35;7.07;;;;;;;41.18;33.53;97378.69;5075086;28;20574;-82
2021/06/26 07:55:51;;;;;;;33.15;7.78;;;;;;;42.60;31.74;97367.47;5086161;28;20021;-82
2021/06/26 07:58:21;;;;;;;29.00;6.93;;;;;;;43.10;31.32;97352.56;5066956;28;20020;-83
2021/06/26 08:00:47;;;;;;;45.83;6.78;;;;;;;41.93;32.19;97363.84;5076407;28;20557;-83
2021/06/26 08:03:14;;;;;;;34.15;7.70;;;;;;;41.96;31.90;97354.81;5093423;28;20108;-82
2021/06/26 08:05:40;;;;;;;32.65;7.05;;;;;;;41.83;32.43;97341.50;5093038;28;20074;-83
2021/06/26 08:08:06;;;;;;;33.78;6.65;;;;;;;42.69;30.70;97357.19;5049488;28;20503;-82
2021/06/26 08:10:31;;;;;;;25.90;6.57;;;;;;;42.91;30.51;97357.41;5071959;28;20105;-82
2021/06/26 08:12:57;;;;;;;34.80;6.80;;;;;;;41.99;31.19;97354.22;5072849;28;20050;-82
2021/06/26 08:15:22;;;;;;;35.88;7.20;;;;;;;43.26;31.02;97357.94;5054913;28;20503;-82
2021/06/26 08:17:49;;;;;;;31.50;7.35;;;;;;;42.97;30.05;97347.75;5055670;28;20035;-82
2021/06/26 08:20:15;;;;;;;36.72;7.65;;;;;;;42.80;30.17;97353.06;5055671;28;20458;-82
2021/06/26 08:22:40;;;;;;;34.35;6.82;;;;;;;43.79;29.92;97349.94;5055422;28;20032;-83
2021/06/26 08:25:07;;;;;;;33.10;6.82;;;;;;;42.72;30.54;97353.78;5055457;28;20021;-82
2021/06/26 08:27:32;;;;;;;32.13;7.40;;;;;;;43.81;30.45;97354.09;5055840;28;20112;-82
2021/06/26 08:29:58;;;;;;;24.67;7.20;;;;;;;44.76;27.75;97325.72;5056701;28;20105;-82
2021/06/26 08:32:23;;;;;;;31.38;7.28;;;;;;;42.85;29.12;97329.63;5072611;28;20040;-83
2021/06/26 08:34:49;;;;;;;41.78;7.55;;;;;;;42.52;30.06;97331.53;5073503;28;20024;-82
2021/06/26 08:37:15;;;;;;;21.65;6.88;;;;;;;43.10;30.14;97335.69;5072821;28;20107;-83
2021/06/26 08:39:40;;;;;;;33.40;7.03;;;;;;;44.00;28.05;97337.91;5056407;28;20023;-83
2021/06/26 08:42:07;;;;;;;39.83;6.80;;;;;;;45.52;26.17;97334.25;5055879;28;20021;-82
2021/06/26 08:44:33;;;;;;;48.92;7.40;;;;;;;45.39;26.69;97321.88;5055817;28;20024;-83
2021/06/26 08:46:59;;;;;;;39.15;8.90;;;;;;;45.15;27.27;97327.88;5073360;28;20027;-82
2021/06/26 08:49:28;;;;;;;32.38;6.93;;;;;;;46.23;25.43;97318.91;5054566;28;20038;-83
2021/06/26 08:51:54;;;;;;;36.67;6.85;;;;;;;46.71;25.45;97296.97;5072450;28;20028;-83
2021/06/26 08:54:21;;;;;;;34.97;6.85;;;;;;;46.41;25.30;97320.59;5054375;28;20032;-82
2021/06/26 08:56:48;;;;;;;47.88;7.43;;;;;;;45.84;26.40;97305.63;5054137;28;20024;-82
2021/06/26 08:59:16;;;;;;;63.17;7.43;;;;;;;46.54;24.53;97313.97;5071031;28;20024;-82
2021/06/26 09:01:42;;;;;;;25.35;6.70;;;;;;;45.69;24.33;97303.25;5055070;28;20079;-82
2021/06/26 09:04:10;;;;;;;30.48;6.47;;;;;;;43.80;26.53;97296.03;5071262;28;20052;-82
2021/06/26 09:06:52;;;;;;;30.33;6.65;;;;;;;43.95;26.43;97307.00;5056986;28;20028;-82
2021/06/26 09:09:37;;;;;;;30.67;8.70;;;;;;;43.68;25.31;97287.25;5082076;28;20059;-81
2021/06/26 09:12:07;;;;;;;34.22;6.97;;;;;;;44.34;25.11;97297.09;5083874;28;20024;-83
2021/06/26 09:14:35;;;;;;;37.33;6.20;;;;;;;44.98;23.52;97296.66;5090809;28;20063;-82
2021/06/26 09:17:01;;;;;;;32.97;7.68;;;;;;;45.55;24.21;97286.38;5067843;28;20036;-83
2021/06/26 09:19:28;;;;;;;47.95;9.88;;;;;;;45.91;25.23;97310.78;5054452;28;20032;-82
2021/06/26 09:22:09;;;;;;;24.08;6.28;;;;;;;46.48;24.15;97297.47;5068814;28;20028;-83
2021/06/26 09:24:45;;;;;;;33.13;6.60;;;;;;;46.84;23.58;97295.16;5084911;28;20035;-82
2021/06/26 09:27:13;;;;;;;37.42;7.18;;;;;;;45.66;24.10;97284.91;5076873;28;20028;-82
2021/06/26 09:29:52;;;;;;;28.17;7.68;;;;;;;45.42;24.34;97286.47;5090469;28;20063;-82
2021/06/26 09:32:25;;;;;;;39.25;6.65;;;;;;;44.43;25.87;97283.91;5065019;28;20027;-82
2021/06/26 09:34:51;;;;;;;27.50;7.03;;;;;;;43.63;25.66;97261.97;5079240;28;20028;-82
2021/06/26 09:37:18;;;;;;;31.77;8.32;;;;;;;42.47;27.53;97256.47;5087538;28;20099;-81
2021/06/26 09:39:45;;;;;;;30.20;6.30;;;;;;;41.76;28.37;97253.88;5094166;28;20028;-82
2021/06/26 09:42:18;;;;;;;40.28;7.15;;;;;;;42.89;27.31;97263.94;5092442;28;20043;-82
2021/06/26 09:44:51;;;;;;;33.70;7.18;;;;;;;43.80;25.68;97252.91;5065053;28;20048;-82
2021/06/26 09:47:33;;;;;;;34.97;6.72;;;;;;;44.44;25.90;97249.72;5083002;28;20036;-81
2021/06/26 09:50:10;;;;;;;32.97;6.32;;;;;;;45.61;23.09;97251.13;5091464;28;20039;-81
2021/06/26 09:52:50;;;;;;;32.80;6.88;;;;;;;46.14;24.03;97244.47;5078975;28;20602;-83
2021/06/26 09:55:16;;;;;;;32.47;7.28;;;;;;;45.47;24.98;97243.94;5090282;28;20048;-80
2021/06/26 09:57:42;;;;;;;26.23;6.05;;;;;;;46.09;24.95;97238.94;5092524;28;20053;-82
2021/06/26 10:01:03;;;;;;;38.88;7.82;;;;;;;46.72;22.58;97199.50;5084039;28;20023;-81
2021/06/26 10:03:32;;;;;;;26.83;6.22;;;;;;;45.70;23.91;97220.06;4997099;28;20042;-83
2021/06/26 10:06:03;;;;;;;32.58;6.97;;;;;;;46.35;23.36;97159.72;5009599;28;20096;-82
2021/06/26 10:08:29;;;;;;;22.13;6.15;;;;;;;46.85;21.83;97213.81;4989101;28;20038;-82
2021/06/26 10:11:04;;;;;;;35.10;5.85;;;;;;;46.26;23.25;97197.34;4981689;28;20057;-83
2021/06/26 10:13:30;;;;;;;28.90;6.32;;;;;;;46.05;24.08;97192.69;5005311;28;20037;-82
2021/06/26 10:15:56;;;;;;;30.33;5.15;;;;;;;46.93;21.20;97208.13;5053545;28;20491;-82
2021/06/26 10:18:21;;;;;;;28.52;6.00;;;;;;;46.15;21.80;97186.69;5054624;28;20023;-81
2021/06/26 10:20:48;;;;;;;27.23;6.88;;;;;;;47.29;20.34;97199.16;5037982;28;20021;-82
2021/06/26 10:23:13;;;;;;;31.65;6.10;;;;;;;48.03;20.43;97196.59;5052951;28;20025;-82
2021/06/26 10:25:40;;;;;;;21.95;5.80;;;;;;;46.75;20.64;97173.31;5036521;28;20024;-82
2021/06/26 10:28:13;;;;;;;26.15;5.47;;;;;;;47.35;20.41;97207.16;5053090;28;20086;-82
2021/06/26 10:30:39;;;;;;;25.00;5.75;;;;;;;47.13;19.44;97189.56;5037162;28;20029;-82
2021/06/26 10:33:08;;;;;;;30.65;7.20;;;;;;;48.44;19.51;97194.94;5038703;28;20485;-82
2021/06/26 10:35:36;;;;;;;27.23;5.83;;;;;;;47.01;20.16;97184.59;5054729;28;20532;-82
2021/06/26 10:38:10;;;;;;;26.45;5.18;;;;;;;47.05;19.41;97177.06;5054521;28;20423;-82
2021/06/26 10:40:45;;;;;;;30.88;5.40;;;;;;;47.34;19.66;97168.66;5036746;28;20032;-81
2021/06/26 10:43:14;;;;;;;25.98;5.28;;;;;;;47.43;19.77;97187.59;5037241;28;20462;-82
2021/06/26 10:45:40;;;;;;;21.85;5.43;;;;;;;48.02;18.54;97160.91;5052888;28;20151;-82
2021/06/26 10:48:17;;;;;;;34.42;5.05;;;;;;;47.08;19.38;97175.56;5053168;28;20527;-82
2021/06/26 10:50:48;;;;;;;32.53;5.70;;;;;;;46.77;19.25;97165.31;5053009;28;20032;-82
2021/06/26 10:53:33;;;;;;;;;;;;;;;45.83;20.49;97164.50;5034047;28;20089;-82
2021/06/26 10:56:12;;;;;;;29.30;5.13;;;;;;;45.77;18.61;97152.53;5032509;28;19921;-82
2021/06/26 10:58:43;;;;;;;21.15;4.97;;;;;;;46.96;20.52;97162.09;5049415;28;20112;-82
2021/06/26 11:01:28;;;;;;;;;;;;;;;45.82;18.81;97154.34;5034452;28;20086;-82
2021/06/26 11:04:10;;;;;;;23.65;4.45;;;;;;;46.94;21.06;97169.28;5053779;28;19913;-82
2021/06/26 11:06:38;;;;;;;25.58;4.85;;;;;;;47.52;19.78;97154.38;5037392;28;20029;-82
2021/06/26 11:09:11;;;;;;;51.42;5.57;;;;;;;48.43;17.42;97142.16;5039562;28;20132;-82
2021/06/26 11:11:48;;;;;;;212.73;12.07;;;;;;;49.00;18.16;97145.94;5053211;28;20033;-82
2021/06/26 11:14:22;;;;;;;39.25;6.97;;;;;;;49.48;18.90;97162.19;5060697;28;20028;-83
2021/06/26 11:16:52;;;;;;;38.55;5.90;;;;;;;48.22;18.83;97177.09;5037913;28;20468;-82
2021/06/26 11:19:18;;;;;;;;;;;;;;;45.55;21.07;97166.78;5053957;28;20032;-82
2021/06/26 11:21:47;;;;;;;30.55;5.43;;;;;;;43.54;23.22;97166.03;5062304;28;19916;-81